Nearby METAR Reports

 

EDLW - Dortmund/Wickede, Germany
Distance from station: OSO 17km
Aktuell: 19/06/2019 00:50
leicht bewölkt
leicht bewölkt
 Wind aus SO
Wind: SO 9 km/h
Temperatur: 21°C
Taupunkt: 16°C
Luftfeuchte: 73%
Luftdruck: 1011 hPa
Clouds: leicht bewölkt
Visibility: 10 km
Cloud details: leicht bewölkt 2225 m
2019/06/18 22:50 EDLW 182250Z AUTO 14005KT 9999 // FEW073/// 21/16 Q1011
EDDL - Duesseldorf, Germany
Distance from station: SW 52km
Aktuell: 19/06/2019 00:50
klar
klar
 Wind aus OSO
Wind: OSO 6 km/h
Temperatur: 17°C
Taupunkt: 15°C
Luftfeuchte: 88%
Luftdruck: 1010 hPa
Zusammenfassung: klar
Visibility: greater than 10 km
2019/06/18 22:50 EDDL 182250Z 11003KT CAVOK 17/15 Q1010 NOSIG
 
EDDG - Muenster/Osnabru, Germany
Distance from station: NNO 67km
Aktuell: 19/06/2019 00:50
klar
klar
 Wind aus NNO
Wind: NNO 6 km/h
Temperatur: 19°C
Taupunkt: 16°C
Luftfeuchte: 83%
Luftdruck: 1010 hPa
Zusammenfassung: klar
Visibility: greater than 10 km
2019/06/18 22:50 EDDG 182250Z 03003KT 360V080 CAVOK 19/16 Q1010 NOSIG
EDLN - Monchengladbach, Germany
Distance from station: WSW 72km
Aktuell: 19/06/2019 00:50
klar
klar
 Wind aus calm
Wind: Windstill
Temperatur: 17°C
Taupunkt: 15°C
Luftfeuchte: 88%
Luftdruck: 1010 hPa
Clouds: klar
Visibility: 10 km
2019/06/18 22:50 EDLN 182250Z AUTO 00000KT 9999 // NCD 17/15 Q1010
 
EDDK - Koeln/Bonn, Germany
Distance from station: SSW 79km
Aktuell: 19/06/2019 00:50
klar
klar
 Wind aus varies
Wind: varies 2 km/h
Temperatur: 20°C
Taupunkt: 15°C
Luftfeuchte: 73%
Luftdruck: 1011 hPa
Zusammenfassung: klar
Visibility: greater than 10 km
2019/06/18 22:50 EDDK 182250Z VRB01KT CAVOK 20/15 Q1011 NOSIG
EDLP - Paderborn/Lippst, Germany
Distance from station: O 85km
Aktuell: 19/06/2019 00:50
klar
klar
 Wind aus S
Wind: S 15 km/h
Temperatur: 21°C
Taupunkt: 13°C
Luftfeuchte: 60%
Luftdruck: 1012 hPa
Zusammenfassung: klar
Visibility: greater than 10 km
2019/06/18 22:50 EDLP 182250Z 17008KT CAVOK 21/13 Q1012
 
EDLV - Niederrhein, Germany
Distance from station: W 86km
Aktuell: 18/06/2019 23:50
NOT Current
klar
klar
 Wind aus varies
Wind: varies 4 km/h
Temperatur: 23°C
Taupunkt: 16°C
Luftfeuchte: 65%
Luftdruck: 1011 hPa
Zusammenfassung: klar
Visibility: greater than 10 km
2019/06/18 21:50 EDLV 182150Z VRB02KT CAVOK 23/16 Q1011
ETNN - Noervenich (gaf), Germany
Distance from station: SSW 97km
Aktuell: 19/06/2019 00:20
stark bewölkt
stark bewölkt
 Wind aus varies
Wind: varies 6 km/h
Temperatur: 19°C
Taupunkt: 15°C
Luftfeuchte: 78%
Luftdruck: 1011 hPa
Clouds: stark bewölkt
Visibility: 10 km
Cloud details: teilweise bewölkt 4877 m
stark bewölkt 6401 m
2019/06/18 22:20 ETNN 182220Z VRB03KT 9999 SCT160 BKN210 19/15 Q1011 BLU+